sensor_id;sensor_type;location;lat;lon;timestamp;P1;durP1;ratioP1;P2;durP2;ratioP2
35326;SDS011;21436;52.348;20.928;2024-01-15T00:01:17;16.38;;;8.30;;
35326;SDS011;21436;52.348;20.928;2024-01-15T00:03:59;17.92;;;8.15;;
35326;SDS011;21436;52.348;20.928;2024-01-15T00:06:27;16.63;;;8.07;;
35326;SDS011;21436;52.348;20.928;2024-01-15T00:08:55;16.48;;;7.78;;
35326;SDS011;21436;52.348;20.928;2024-01-15T00:11:25;18.38;;;9.25;;
35326;SDS011;21436;52.348;20.928;2024-01-15T00:13:53;14.43;;;8.25;;
35326;SDS011;21436;52.348;20.928;2024-01-15T00:16:20;18.10;;;9.80;;
35326;SDS011;21436;52.348;20.928;2024-01-15T00:18:47;11.85;;;6.95;;
35326;SDS011;21436;52.348;20.928;2024-01-15T00:21:15;16.58;;;8.93;;
35326;SDS011;21436;52.348;20.928;2024-01-15T00:23:42;15.65;;;8.32;;
35326;SDS011;21436;52.348;20.928;2024-01-15T00:26:11;16.13;;;9.48;;
35326;SDS011;21436;52.348;20.928;2024-01-15T00:28:39;17.27;;;9.45;;
35326;SDS011;21436;52.348;20.928;2024-01-15T00:31:06;18.30;;;9.52;;
35326;SDS011;21436;52.348;20.928;2024-01-15T00:33:34;19.30;;;9.05;;
35326;SDS011;21436;52.348;20.928;2024-01-15T00:36:02;19.05;;;9.57;;
35326;SDS011;21436;52.348;20.928;2024-01-15T00:38:30;17.95;;;10.20;;
35326;SDS011;21436;52.348;20.928;2024-01-15T00:40:57;20.08;;;10.85;;
35326;SDS011;21436;52.348;20.928;2024-01-15T00:43:25;20.40;;;10.13;;
35326;SDS011;21436;52.348;20.928;2024-01-15T00:45:52;22.80;;;10.65;;
35326;SDS011;21436;52.348;20.928;2024-01-15T00:48:20;20.90;;;11.45;;
35326;SDS011;21436;52.348;20.928;2024-01-15T00:50:47;29.13;;;11.85;;
35326;SDS011;21436;52.348;20.928;2024-01-15T00:53:15;27.30;;;11.30;;
35326;SDS011;21436;52.348;20.928;2024-01-15T00:55:42;27.42;;;11.95;;
35326;SDS011;21436;52.348;20.928;2024-01-15T00:58:10;17.75;;;9.48;;
35326;SDS011;21436;52.348;20.928;2024-01-15T01:00:37;22.95;;;10.77;;
35326;SDS011;21436;52.348;20.928;2024-01-15T01:03:05;27.08;;;11.25;;
35326;SDS011;21436;52.348;20.928;2024-01-15T01:05:33;26.42;;;12.68;;
35326;SDS011;21436;52.348;20.928;2024-01-15T01:08:01;21.27;;;10.77;;
35326;SDS011;21436;52.348;20.928;2024-01-15T01:10:28;20.83;;;9.95;;
35326;SDS011;21436;52.348;20.928;2024-01-15T01:12:55;23.67;;;11.45;;
35326;SDS011;21436;52.348;20.928;2024-01-15T01:15:23;23.83;;;10.73;;
35326;SDS011;21436;52.348;20.928;2024-01-15T01:17:51;21.85;;;12.18;;
35326;SDS011;21436;52.348;20.928;2024-01-15T01:20:19;22.55;;;12.18;;
35326;SDS011;21436;52.348;20.928;2024-01-15T01:22:46;20.92;;;11.45;;
35326;SDS011;21436;52.348;20.928;2024-01-15T01:25:14;22.70;;;11.32;;
35326;SDS011;21436;52.348;20.928;2024-01-15T01:27:42;25.40;;;12.60;;
35326;SDS011;21436;52.348;20.928;2024-01-15T01:30:09;23.63;;;11.88;;
35326;SDS011;21436;52.348;20.928;2024-01-15T01:32:37;20.23;;;10.70;;
35326;SDS011;21436;52.348;20.928;2024-01-15T01:35:05;23.98;;;11.73;;
35326;SDS011;21436;52.348;20.928;2024-01-15T01:37:32;23.08;;;11.93;;
35326;SDS011;21436;52.348;20.928;2024-01-15T01:40:01;25.13;;;12.70;;
35326;SDS011;21436;52.348;20.928;2024-01-15T01:42:28;20.38;;;11.93;;
35326;SDS011;21436;52.348;20.928;2024-01-15T01:44:55;20.30;;;9.80;;
35326;SDS011;21436;52.348;20.928;2024-01-15T01:47:23;21.73;;;11.35;;
35326;SDS011;21436;52.348;20.928;2024-01-15T01:49:53;20.40;;;11.43;;
35326;SDS011;21436;52.348;20.928;2024-01-15T01:52:21;21.90;;;11.30;;
35326;SDS011;21436;52.348;20.928;2024-01-15T01:54:48;24.27;;;11.88;;
35326;SDS011;21436;52.348;20.928;2024-01-15T01:57:16;26.13;;;12.32;;
35326;SDS011;21436;52.348;20.928;2024-01-15T01:59:44;22.50;;;12.27;;
35326;SDS011;21436;52.348;20.928;2024-01-15T02:02:12;25.40;;;13.13;;
35326;SDS011;21436;52.348;20.928;2024-01-15T02:04:40;24.65;;;12.48;;
35326;SDS011;21436;52.348;20.928;2024-01-15T02:07:08;22.45;;;12.43;;
35326;SDS011;21436;52.348;20.928;2024-01-15T02:09:36;26.70;;;12.15;;
35326;SDS011;21436;52.348;20.928;2024-01-15T02:12:04;24.63;;;11.85;;
35326;SDS011;21436;52.348;20.928;2024-01-15T02:14:32;24.75;;;12.45;;
35326;SDS011;21436;52.348;20.928;2024-01-15T02:16:59;24.52;;;12.90;;
35326;SDS011;21436;52.348;20.928;2024-01-15T02:19:27;26.13;;;12.80;;
35326;SDS011;21436;52.348;20.928;2024-01-15T02:21:55;23.15;;;12.43;;
35326;SDS011;21436;52.348;20.928;2024-01-15T02:24:22;25.45;;;12.88;;
35326;SDS011;21436;52.348;20.928;2024-01-15T02:26:50;23.92;;;11.70;;
35326;SDS011;21436;52.348;20.928;2024-01-15T02:29:17;24.00;;;12.38;;
35326;SDS011;21436;52.348;20.928;2024-01-15T02:31:45;26.23;;;13.50;;
35326;SDS011;21436;52.348;20.928;2024-01-15T02:34:13;28.30;;;13.95;;
35326;SDS011;21436;52.348;20.928;2024-01-15T02:36:40;24.83;;;12.60;;
35326;SDS011;21436;52.348;20.928;2024-01-15T02:39:08;26.30;;;12.23;;
35326;SDS011;21436;52.348;20.928;2024-01-15T02:41:35;22.27;;;12.70;;
35326;SDS011;21436;52.348;20.928;2024-01-15T02:44:02;25.98;;;12.85;;
35326;SDS011;21436;52.348;20.928;2024-01-15T02:46:30;27.75;;;14.38;;
35326;SDS011;21436;52.348;20.928;2024-01-15T02:48:57;24.35;;;11.73;;
35326;SDS011;21436;52.348;20.928;2024-01-15T02:51:25;26.30;;;14.23;;
35326;SDS011;21436;52.348;20.928;2024-01-15T02:53:52;28.05;;;13.30;;
35326;SDS011;21436;52.348;20.928;2024-01-15T02:56:20;23.38;;;13.13;;
35326;SDS011;21436;52.348;20.928;2024-01-15T02:58:47;23.48;;;12.18;;
35326;SDS011;21436;52.348;20.928;2024-01-15T03:01:14;25.20;;;12.20;;
35326;SDS011;21436;52.348;20.928;2024-01-15T03:03:42;26.23;;;13.00;;
35326;SDS011;21436;52.348;20.928;2024-01-15T03:06:10;25.23;;;12.40;;
35326;SDS011;21436;52.348;20.928;2024-01-15T03:08:38;23.95;;;13.10;;
35326;SDS011;21436;52.348;20.928;2024-01-15T03:11:05;26.83;;;12.90;;
35326;SDS011;21436;52.348;20.928;2024-01-15T03:13:35;27.13;;;13.73;;
35326;SDS011;21436;52.348;20.928;2024-01-15T03:16:04;25.05;;;13.93;;
35326;SDS011;21436;52.348;20.928;2024-01-15T03:18:32;25.33;;;12.25;;
35326;SDS011;21436;52.348;20.928;2024-01-15T03:20:59;29.35;;;13.52;;
35326;SDS011;21436;52.348;20.928;2024-01-15T03:23:28;26.77;;;13.25;;
35326;SDS011;21436;52.348;20.928;2024-01-15T03:25:56;27.70;;;12.60;;
35326;SDS011;21436;52.348;20.928;2024-01-15T03:28:23;26.90;;;13.70;;
35326;SDS011;21436;52.348;20.928;2024-01-15T03:30:51;27.33;;;14.35;;
35326;SDS011;21436;52.348;20.928;2024-01-15T03:33:18;29.45;;;12.90;;
35326;SDS011;21436;52.348;20.928;2024-01-15T03:35:46;28.23;;;13.98;;
35326;SDS011;21436;52.348;20.928;2024-01-15T03:38:13;28.83;;;12.30;;
35326;SDS011;21436;52.348;20.928;2024-01-15T03:40:40;26.80;;;12.75;;
35326;SDS011;21436;52.348;20.928;2024-01-15T03:43:08;24.25;;;13.15;;
35326;SDS011;21436;52.348;20.928;2024-01-15T03:45:35;23.33;;;11.02;;
35326;SDS011;21436;52.348;20.928;2024-01-15T03:48:03;27.65;;;13.27;;
35326;SDS011;21436;52.348;20.928;2024-01-15T03:50:30;25.08;;;12.13;;
35326;SDS011;21436;52.348;20.928;2024-01-15T03:52:58;25.90;;;13.75;;
35326;SDS011;21436;52.348;20.928;2024-01-15T03:55:25;29.65;;;12.75;;
35326;SDS011;21436;52.348;20.928;2024-01-15T03:57:52;29.25;;;14.02;;
35326;SDS011;21436;52.348;20.928;2024-01-15T04:00:20;25.67;;;13.80;;
35326;SDS011;21436;52.348;20.928;2024-01-15T04:02:47;25.52;;;12.18;;
35326;SDS011;21436;52.348;20.928;2024-01-15T04:05:15;28.67;;;13.10;;
35326;SDS011;21436;52.348;20.928;2024-01-15T04:07:42;29.70;;;13.23;;
35326;SDS011;21436;52.348;20.928;2024-01-15T04:10:10;26.08;;;12.30;;
35326;SDS011;21436;52.348;20.928;2024-01-15T04:12:37;31.27;;;13.43;;
35326;SDS011;21436;52.348;20.928;2024-01-15T04:15:05;30.20;;;13.57;;
35326;SDS011;21436;52.348;20.928;2024-01-15T04:17:33;29.92;;;13.70;;
35326;SDS011;21436;52.348;20.928;2024-01-15T04:20:01;23.30;;;10.10;;
35326;SDS011;21436;52.348;20.928;2024-01-15T04:22:28;27.58;;;12.93;;
35326;SDS011;21436;52.348;20.928;2024-01-15T04:24:56;28.63;;;12.27;;
35326;SDS011;21436;52.348;20.928;2024-01-15T04:27:24;28.20;;;11.52;;
35326;SDS011;21436;52.348;20.928;2024-01-15T04:29:51;27.23;;;12.57;;
35326;SDS011;21436;52.348;20.928;2024-01-15T04:32:19;24.27;;;12.00;;
35326;SDS011;21436;52.348;20.928;2024-01-15T04:34:47;22.95;;;10.90;;
35326;SDS011;21436;52.348;20.928;2024-01-15T04:37:15;25.92;;;12.50;;
35326;SDS011;21436;52.348;20.928;2024-01-15T04:39:42;22.40;;;10.38;;
35326;SDS011;21436;52.348;20.928;2024-01-15T04:42:10;26.63;;;12.95;;
35326;SDS011;21436;52.348;20.928;2024-01-15T04:44:37;29.95;;;12.40;;
35326;SDS011;21436;52.348;20.928;2024-01-15T04:47:05;24.48;;;11.63;;
35326;SDS011;21436;52.348;20.928;2024-01-15T04:49:32;23.23;;;11.30;;
35326;SDS011;21436;52.348;20.928;2024-01-15T04:51:59;22.33;;;11.65;;
35326;SDS011;21436;52.348;20.928;2024-01-15T04:54:27;25.17;;;12.90;;
35326;SDS011;21436;52.348;20.928;2024-01-15T04:56:54;18.13;;;8.95;;
35326;SDS011;21436;52.348;20.928;2024-01-15T04:59:22;24.33;;;11.40;;
35326;SDS011;21436;52.348;20.928;2024-01-15T05:01:49;20.17;;;10.15;;
35326;SDS011;21436;52.348;20.928;2024-01-15T05:04:17;23.63;;;11.90;;
35326;SDS011;21436;52.348;20.928;2024-01-15T05:06:44;20.08;;;10.20;;
35326;SDS011;21436;52.348;20.928;2024-01-15T05:09:12;23.83;;;10.98;;
35326;SDS011;21436;52.348;20.928;2024-01-15T05:11:40;18.50;;;8.52;;
35326;SDS011;21436;52.348;20.928;2024-01-15T05:14:07;19.67;;;9.75;;
35326;SDS011;21436;52.348;20.928;2024-01-15T05:16:35;22.85;;;10.38;;
35326;SDS011;21436;52.348;20.928;2024-01-15T05:19:05;21.20;;;10.32;;
35326;SDS011;21436;52.348;20.928;2024-01-15T05:21:34;24.55;;;10.85;;
35326;SDS011;21436;52.348;20.928;2024-01-15T05:24:01;19.58;;;9.35;;
35326;SDS011;21436;52.348;20.928;2024-01-15T05:26:29;21.20;;;10.55;;
35326;SDS011;21436;52.348;20.928;2024-01-15T05:28:56;24.50;;;11.02;;
35326;SDS011;21436;52.348;20.928;2024-01-15T05:31:24;20.63;;;10.60;;
35326;SDS011;21436;52.348;20.928;2024-01-15T05:33:52;17.73;;;9.77;;
35326;SDS011;21436;52.348;20.928;2024-01-15T05:36:20;19.88;;;11.07;;
35326;SDS011;21436;52.348;20.928;2024-01-15T05:38:47;19.52;;;10.35;;
35326;SDS011;21436;52.348;20.928;2024-01-15T05:41:16;21.38;;;10.15;;
35326;SDS011;21436;52.348;20.928;2024-01-15T05:43:44;18.38;;;10.32;;
35326;SDS011;21436;52.348;20.928;2024-01-15T05:46:11;20.38;;;10.20;;
35326;SDS011;21436;52.348;20.928;2024-01-15T05:48:38;21.88;;;10.70;;
35326;SDS011;21436;52.348;20.928;2024-01-15T05:51:06;18.23;;;10.35;;
35326;SDS011;21436;52.348;20.928;2024-01-15T05:53:33;19.15;;;9.32;;
35326;SDS011;21436;52.348;20.928;2024-01-15T05:56:01;19.48;;;9.80;;
35326;SDS011;21436;52.348;20.928;2024-01-15T05:58:28;18.02;;;10.02;;
35326;SDS011;21436;52.348;20.928;2024-01-15T06:00:56;21.33;;;10.93;;
35326;SDS011;21436;52.348;20.928;2024-01-15T06:03:23;21.33;;;11.52;;
35326;SDS011;21436;52.348;20.928;2024-01-15T06:05:51;19.42;;;11.05;;
35326;SDS011;21436;52.348;20.928;2024-01-15T06:08:19;20.33;;;10.88;;
35326;SDS011;21436;52.348;20.928;2024-01-15T06:10:47;17.27;;;10.43;;
35326;SDS011;21436;52.348;20.928;2024-01-15T06:13:15;19.38;;;10.35;;
35326;SDS011;21436;52.348;20.928;2024-01-15T06:15:42;20.52;;;10.25;;
35326;SDS011;21436;52.348;20.928;2024-01-15T06:18:10;16.00;;;9.70;;
35326;SDS011;21436;52.348;20.928;2024-01-15T06:20:37;22.90;;;11.40;;
35326;SDS011;21436;52.348;20.928;2024-01-15T06:23:05;19.75;;;9.88;;
35326;SDS011;21436;52.348;20.928;2024-01-15T06:25:32;29.80;;;13.43;;
35326;SDS011;21436;52.348;20.928;2024-01-15T06:28:00;29.98;;;13.20;;
35326;SDS011;21436;52.348;20.928;2024-01-15T06:30:27;29.65;;;13.13;;
35326;SDS011;21436;52.348;20.928;2024-01-15T06:32:55;23.80;;;11.40;;
35326;SDS011;21436;52.348;20.928;2024-01-15T06:35:22;24.17;;;11.32;;
35326;SDS011;21436;52.348;20.928;2024-01-15T06:37:50;27.38;;;13.13;;
35326;SDS011;21436;52.348;20.928;2024-01-15T06:40:17;28.48;;;11.80;;
35326;SDS011;21436;52.348;20.928;2024-01-15T06:42:44;28.90;;;12.68;;
35326;SDS011;21436;52.348;20.928;2024-01-15T06:45:12;23.88;;;11.40;;
35326;SDS011;21436;52.348;20.928;2024-01-15T06:47:39;26.33;;;13.48;;
35326;SDS011;21436;52.348;20.928;2024-01-15T06:50:07;26.77;;;12.23;;
35326;SDS011;21436;52.348;20.928;2024-01-15T06:52:34;30.08;;;12.95;;
35326;SDS011;21436;52.348;20.928;2024-01-15T06:55:02;26.17;;;12.20;;
35326;SDS011;21436;52.348;20.928;2024-01-15T06:57:30;27.80;;;13.68;;
35326;SDS011;21436;52.348;20.928;2024-01-15T06:59:58;30.00;;;13.73;;
35326;SDS011;21436;52.348;20.928;2024-01-15T07:02:25;31.95;;;14.25;;
35326;SDS011;21436;52.348;20.928;2024-01-15T07:04:54;31.08;;;13.65;;
35326;SDS011;21436;52.348;20.928;2024-01-15T07:07:21;35.67;;;16.10;;
35326;SDS011;21436;52.348;20.928;2024-01-15T07:09:48;29.60;;;13.65;;
35326;SDS011;21436;52.348;20.928;2024-01-15T07:12:19;32.10;;;13.80;;
35326;SDS011;21436;52.348;20.928;2024-01-15T07:14:47;30.50;;;13.68;;
35326;SDS011;21436;52.348;20.928;2024-01-15T07:17:14;34.15;;;15.55;;
35326;SDS011;21436;52.348;20.928;2024-01-15T07:19:42;31.77;;;15.55;;
35326;SDS011;21436;52.348;20.928;2024-01-15T07:22:10;46.97;;;19.73;;
35326;SDS011;21436;52.348;20.928;2024-01-15T07:24:37;33.75;;;15.85;;
35326;SDS011;21436;52.348;20.928;2024-01-15T07:27:04;30.20;;;14.25;;
35326;SDS011;21436;52.348;20.928;2024-01-15T07:29:32;28.50;;;13.40;;
35326;SDS011;21436;52.348;20.928;2024-01-15T07:32:04;29.35;;;14.52;;
35326;SDS011;21436;52.348;20.928;2024-01-15T07:34:32;29.85;;;13.40;;
35326;SDS011;21436;52.348;20.928;2024-01-15T07:37:00;29.88;;;14.85;;
35326;SDS011;21436;52.348;20.928;2024-01-15T07:39:27;31.20;;;15.15;;
35326;SDS011;21436;52.348;20.928;2024-01-15T07:41:56;26.67;;;13.18;;
35326;SDS011;21436;52.348;20.928;2024-01-15T07:44:23;30.77;;;15.63;;
35326;SDS011;21436;52.348;20.928;2024-01-15T07:46:51;29.10;;;12.60;;
35326;SDS011;21436;52.348;20.928;2024-01-15T07:49:18;23.98;;;11.52;;
35326;SDS011;21436;52.348;20.928;2024-01-15T07:51:46;23.85;;;12.35;;
35326;SDS011;21436;52.348;20.928;2024-01-15T07:54:13;20.48;;;10.48;;
35326;SDS011;21436;52.348;20.928;2024-01-15T07:56:59;28.27;;;12.68;;
35326;SDS011;21436;52.348;20.928;2024-01-15T07:59:28;27.90;;;12.80;;
35326;SDS011;21436;52.348;20.928;2024-01-15T08:01:55;20.50;;;10.48;;
35326;SDS011;21436;52.348;20.928;2024-01-15T08:04:22;24.98;;;11.80;;
35326;SDS011;21436;52.348;20.928;2024-01-15T08:06:50;23.67;;;12.40;;
35326;SDS011;21436;52.348;20.928;2024-01-15T08:09:18;25.33;;;12.20;;
35326;SDS011;21436;52.348;20.928;2024-01-15T08:11:45;26.45;;;12.45;;
35326;SDS011;21436;52.348;20.928;2024-01-15T08:14:12;23.40;;;11.15;;
35326;SDS011;21436;52.348;20.928;2024-01-15T08:16:40;23.73;;;11.10;;
35326;SDS011;21436;52.348;20.928;2024-01-15T08:19:08;17.05;;;8.63;;
35326;SDS011;21436;52.348;20.928;2024-01-15T08:21:36;24.98;;;12.27;;
35326;SDS011;21436;52.348;20.928;2024-01-15T08:24:03;20.25;;;10.10;;
35326;SDS011;21436;52.348;20.928;2024-01-15T08:26:32;22.17;;;11.48;;
35326;SDS011;21436;52.348;20.928;2024-01-15T08:28:59;23.95;;;11.55;;
35326;SDS011;21436;52.348;20.928;2024-01-15T08:31:29;14.98;;;6.75;;
35326;SDS011;21436;52.348;20.928;2024-01-15T08:33:57;28.70;;;10.95;;
35326;SDS011;21436;52.348;20.928;2024-01-15T08:36:26;21.58;;;10.93;;
35326;SDS011;21436;52.348;20.928;2024-01-15T08:38:56;17.88;;;9.38;;
35326;SDS011;21436;52.348;20.928;2024-01-15T08:41:24;19.45;;;8.98;;
35326;SDS011;21436;52.348;20.928;2024-01-15T08:43:52;20.83;;;9.82;;
35326;SDS011;21436;52.348;20.928;2024-01-15T08:46:20;21.23;;;10.52;;
35326;SDS011;21436;52.348;20.928;2024-01-15T08:48:47;17.60;;;8.63;;
35326;SDS011;21436;52.348;20.928;2024-01-15T08:51:15;21.30;;;8.82;;
35326;SDS011;21436;52.348;20.928;2024-01-15T08:53:42;20.80;;;9.20;;
35326;SDS011;21436;52.348;20.928;2024-01-15T08:56:11;17.73;;;9.48;;
35326;SDS011;21436;52.348;20.928;2024-01-15T08:58:41;17.75;;;8.65;;
35326;SDS011;21436;52.348;20.928;2024-01-15T09:01:08;12.52;;;6.75;;
35326;SDS011;21436;52.348;20.928;2024-01-15T09:03:36;17.98;;;8.85;;
35326;SDS011;21436;52.348;20.928;2024-01-15T09:06:04;16.27;;;8.93;;
35326;SDS011;21436;52.348;20.928;2024-01-15T09:08:31;17.45;;;7.47;;
35326;SDS011;21436;52.348;20.928;2024-01-15T09:10:59;20.65;;;9.82;;
35326;SDS011;21436;52.348;20.928;2024-01-15T09:13:29;18.98;;;8.43;;
35326;SDS011;21436;52.348;20.928;2024-01-15T09:15:57;16.20;;;8.68;;
35326;SDS011;21436;52.348;20.928;2024-01-15T09:18:25;21.35;;;10.55;;
35326;SDS011;21436;52.348;20.928;2024-01-15T09:20:53;20.38;;;10.48;;
35326;SDS011;21436;52.348;20.928;2024-01-15T09:23:20;24.08;;;11.45;;
35326;SDS011;21436;52.348;20.928;2024-01-15T09:25:47;21.27;;;9.60;;
35326;SDS011;21436;52.348;20.928;2024-01-15T09:28:15;22.08;;;11.35;;
35326;SDS011;21436;52.348;20.928;2024-01-15T09:30:43;20.25;;;10.60;;
35326;SDS011;21436;52.348;20.928;2024-01-15T09:33:12;21.10;;;10.32;;
35326;SDS011;21436;52.348;20.928;2024-01-15T09:35:39;22.83;;;11.02;;
35326;SDS011;21436;52.348;20.928;2024-01-15T09:38:07;25.92;;;11.48;;
35326;SDS011;21436;52.348;20.928;2024-01-15T09:40:34;20.63;;;10.80;;
35326;SDS011;21436;52.348;20.928;2024-01-15T09:43:05;20.25;;;9.52;;
35326;SDS011;21436;52.348;20.928;2024-01-15T09:45:33;20.65;;;10.52;;
35326;SDS011;21436;52.348;20.928;2024-01-15T09:48:00;19.58;;;8.88;;
35326;SDS011;21436;52.348;20.928;2024-01-15T09:50:28;19.02;;;9.27;;
35326;SDS011;21436;52.348;20.928;2024-01-15T09:52:55;21.38;;;8.07;;
35326;SDS011;21436;52.348;20.928;2024-01-15T09:55:24;17.90;;;6.55;;
35326;SDS011;21436;52.348;20.928;2024-01-15T09:57:52;16.55;;;6.45;;
35326;SDS011;21436;52.348;20.928;2024-01-15T10:00:20;16.50;;;7.13;;
35326;SDS011;21436;52.348;20.928;2024-01-15T10:02:47;13.95;;;5.72;;
35326;SDS011;21436;52.348;20.928;2024-01-15T10:05:16;15.98;;;6.65;;
35326;SDS011;21436;52.348;20.928;2024-01-15T10:07:43;13.98;;;6.68;;
35326;SDS011;21436;52.348;20.928;2024-01-15T10:10:13;12.63;;;5.85;;
35326;SDS011;21436;52.348;20.928;2024-01-15T10:12:40;17.33;;;7.40;;
35326;SDS011;21436;52.348;20.928;2024-01-15T10:15:09;13.93;;;5.85;;
35326;SDS011;21436;52.348;20.928;2024-01-15T10:17:39;18.38;;;7.53;;
35326;SDS011;21436;52.348;20.928;2024-01-15T10:20:10;14.77;;;6.28;;
35326;SDS011;21436;52.348;20.928;2024-01-15T10:22:40;14.07;;;6.57;;
35326;SDS011;21436;52.348;20.928;2024-01-15T10:25:11;10.35;;;6.15;;
35326;SDS011;21436;52.348;20.928;2024-01-15T10:27:42;13.95;;;7.00;;
35326;SDS011;21436;52.348;20.928;2024-01-15T10:30:10;16.52;;;7.10;;
35326;SDS011;21436;52.348;20.928;2024-01-15T10:32:40;14.68;;;6.43;;
35326;SDS011;21436;52.348;20.928;2024-01-15T10:35:08;21.38;;;5.90;;
35326;SDS011;21436;52.348;20.928;2024-01-15T10:37:35;18.52;;;6.97;;
35326;SDS011;21436;52.348;20.928;2024-01-15T10:40:03;12.88;;;6.85;;
35326;SDS011;21436;52.348;20.928;2024-01-15T10:42:34;16.95;;;6.03;;
35326;SDS011;21436;52.348;20.928;2024-01-15T10:45:01;15.40;;;6.40;;
35326;SDS011;21436;52.348;20.928;2024-01-15T10:47:30;13.13;;;6.35;;
35326;SDS011;21436;52.348;20.928;2024-01-15T10:49:57;17.20;;;7.07;;
35326;SDS011;21436;52.348;20.928;2024-01-15T10:52:25;12.65;;;6.95;;
35326;SDS011;21436;52.348;20.928;2024-01-15T10:54:53;14.38;;;5.78;;
35326;SDS011;21436;52.348;20.928;2024-01-15T10:57:21;15.77;;;7.82;;
35326;SDS011;21436;52.348;20.928;2024-01-15T10:59:49;15.98;;;7.68;;
35326;SDS011;21436;52.348;20.928;2024-01-15T11:02:17;15.70;;;7.50;;
35326;SDS011;21436;52.348;20.928;2024-01-15T11:04:44;15.27;;;7.97;;
35326;SDS011;21436;52.348;20.928;2024-01-15T11:07:13;19.15;;;8.90;;
35326;SDS011;21436;52.348;20.928;2024-01-15T11:09:40;24.55;;;8.20;;
35326;SDS011;21436;52.348;20.928;2024-01-15T11:12:11;16.60;;;7.90;;
35326;SDS011;21436;52.348;20.928;2024-01-15T11:14:40;18.98;;;8.48;;
35326;SDS011;21436;52.348;20.928;2024-01-15T11:17:11;15.50;;;7.60;;
35326;SDS011;21436;52.348;20.928;2024-01-15T11:19:47;17.85;;;8.38;;
35326;SDS011;21436;52.348;20.928;2024-01-15T11:25:13;22.48;;;7.47;;
35326;SDS011;21436;52.348;20.928;2024-01-15T11:30:24;14.10;;;6.90;;
35326;SDS011;21436;52.348;20.928;2024-01-15T11:32:53;12.02;;;5.88;;
35326;SDS011;21436;52.348;20.928;2024-01-15T11:35:20;11.98;;;6.07;;
35326;SDS011;21436;52.348;20.928;2024-01-15T11:40:22;15.32;;;5.07;;
35326;SDS011;21436;52.348;20.928;2024-01-15T11:42:59;16.70;;;7.07;;
35326;SDS011;21436;52.348;20.928;2024-01-15T11:45:27;16.05;;;7.45;;
35326;SDS011;21436;52.348;20.928;2024-01-15T11:50:48;13.60;;;5.78;;
35326;SDS011;21436;52.348;20.928;2024-01-15T11:55:57;22.50;;;7.95;;
35326;SDS011;21436;52.348;20.928;2024-01-15T11:58:25;12.55;;;5.53;;
35326;SDS011;21436;52.348;20.928;2024-01-15T12:00:53;21.08;;;6.88;;
35326;SDS011;21436;52.348;20.928;2024-01-15T12:03:22;17.80;;;7.40;;
35326;SDS011;21436;52.348;20.928;2024-01-15T12:05:54;11.55;;;4.70;;
35326;SDS011;21436;52.348;20.928;2024-01-15T12:08:22;11.65;;;4.25;;
35326;SDS011;21436;52.348;20.928;2024-01-15T12:10:51;13.27;;;5.75;;
35326;SDS011;21436;52.348;20.928;2024-01-15T12:13:19;14.13;;;7.40;;
35326;SDS011;21436;52.348;20.928;2024-01-15T12:15:47;15.27;;;6.60;;
35326;SDS011;21436;52.348;20.928;2024-01-15T12:18:17;18.13;;;7.20;;
35326;SDS011;21436;52.348;20.928;2024-01-15T12:20:46;14.85;;;6.35;;
35326;SDS011;21436;52.348;20.928;2024-01-15T12:23:14;12.57;;;6.00;;
35326;SDS011;21436;52.348;20.928;2024-01-15T12:25:42;14.07;;;5.97;;
35326;SDS011;21436;52.348;20.928;2024-01-15T12:28:09;14.43;;;5.70;;
35326;SDS011;21436;52.348;20.928;2024-01-15T12:30:37;12.20;;;5.18;;
35326;SDS011;21436;52.348;20.928;2024-01-15T12:33:06;21.63;;;7.90;;
35326;SDS011;21436;52.348;20.928;2024-01-15T12:35:36;14.32;;;6.45;;
35326;SDS011;21436;52.348;20.928;2024-01-15T12:38:04;16.27;;;7.22;;
35326;SDS011;21436;52.348;20.928;2024-01-15T12:40:32;15.32;;;6.55;;
35326;SDS011;21436;52.348;20.928;2024-01-15T12:43:05;18.60;;;7.10;;
35326;SDS011;21436;52.348;20.928;2024-01-15T12:45:34;15.18;;;7.22;;
35326;SDS011;21436;52.348;20.928;2024-01-15T12:48:05;21.65;;;9.07;;
35326;SDS011;21436;52.348;20.928;2024-01-15T12:50:33;21.20;;;9.02;;
35326;SDS011;21436;52.348;20.928;2024-01-15T12:53:01;23.73;;;8.70;;
35326;SDS011;21436;52.348;20.928;2024-01-15T12:55:29;16.60;;;7.43;;
35326;SDS011;21436;52.348;20.928;2024-01-15T12:57:56;17.75;;;8.63;;
35326;SDS011;21436;52.348;20.928;2024-01-15T13:00:24;18.55;;;8.98;;
35326;SDS011;21436;52.348;20.928;2024-01-15T13:02:53;19.77;;;8.75;;
35326;SDS011;21436;52.348;20.928;2024-01-15T13:05:22;16.25;;;7.22;;
35326;SDS011;21436;52.348;20.928;2024-01-15T13:07:51;20.60;;;8.98;;
35326;SDS011;21436;52.348;20.928;2024-01-15T13:10:18;23.70;;;7.90;;
35326;SDS011;21436;52.348;20.928;2024-01-15T13:12:46;23.63;;;7.97;;
35326;SDS011;21436;52.348;20.928;2024-01-15T13:15:14;15.45;;;7.10;;
35326;SDS011;21436;52.348;20.928;2024-01-15T13:17:42;19.02;;;6.18;;
35326;SDS011;21436;52.348;20.928;2024-01-15T13:20:11;15.93;;;7.65;;
35326;SDS011;21436;52.348;20.928;2024-01-15T13:22:39;22.42;;;8.85;;
35326;SDS011;21436;52.348;20.928;2024-01-15T13:25:11;17.52;;;8.02;;
35326;SDS011;21436;52.348;20.928;2024-01-15T13:27:39;13.68;;;6.05;;
35326;SDS011;21436;52.348;20.928;2024-01-15T13:30:08;14.93;;;7.82;;
35326;SDS011;21436;52.348;20.928;2024-01-15T13:32:37;19.42;;;6.80;;
35326;SDS011;21436;52.348;20.928;2024-01-15T13:35:05;20.40;;;7.03;;
35326;SDS011;21436;52.348;20.928;2024-01-15T13:37:36;15.90;;;7.40;;
35326;SDS011;21436;52.348;20.928;2024-01-15T13:40:05;17.98;;;8.20;;
35326;SDS011;21436;52.348;20.928;2024-01-15T13:42:35;16.27;;;6.97;;
35326;SDS011;21436;52.348;20.928;2024-01-15T13:45:05;21.00;;;7.60;;
35326;SDS011;21436;52.348;20.928;2024-01-15T13:47:34;20.00;;;7.60;;
35326;SDS011;21436;52.348;20.928;2024-01-15T13:50:02;21.58;;;7.50;;
35326;SDS011;21436;52.348;20.928;2024-01-15T13:52:30;16.77;;;7.53;;
35326;SDS011;21436;52.348;20.928;2024-01-15T13:54:58;16.65;;;7.18;;
35326;SDS011;21436;52.348;20.928;2024-01-15T13:57:25;20.70;;;7.43;;
35326;SDS011;21436;52.348;20.928;2024-01-15T13:59:53;22.90;;;8.15;;
35326;SDS011;21436;52.348;20.928;2024-01-15T14:02:20;13.00;;;6.45;;
35326;SDS011;21436;52.348;20.928;2024-01-15T14:04:50;18.20;;;7.28;;
35326;SDS011;21436;52.348;20.928;2024-01-15T14:07:17;19.88;;;8.15;;
35326;SDS011;21436;52.348;20.928;2024-01-15T14:09:45;18.60;;;7.00;;
35326;SDS011;21436;52.348;20.928;2024-01-15T14:12:12;15.65;;;7.07;;
35326;SDS011;21436;52.348;20.928;2024-01-15T14:14:40;17.13;;;7.00;;
35326;SDS011;21436;52.348;20.928;2024-01-15T14:17:07;15.13;;;6.03;;
35326;SDS011;21436;52.348;20.928;2024-01-15T14:19:35;21.20;;;8.52;;
35326;SDS011;21436;52.348;20.928;2024-01-15T14:22:03;19.92;;;8.13;;
35326;SDS011;21436;52.348;20.928;2024-01-15T14:24:31;25.52;;;8.35;;
35326;SDS011;21436;52.348;20.928;2024-01-15T14:26:58;18.80;;;7.40;;
35326;SDS011;21436;52.348;20.928;2024-01-15T14:29:29;19.63;;;7.50;;
35326;SDS011;21436;52.348;20.928;2024-01-15T14:31:56;17.42;;;6.50;;